aviador You're here:

CYUS Decoded Metar

SHEPHERD BAY in NU, CANADA
Report Time2018-05-27 00:00:00
UTC Time2018-05-27 01:08:38
Flight Rules Old
Wind110° at 07 kt
W.Rank110° ranks 6
Current wind is below 110° avg. (9.7)
Visibility0 m
Phenomena:N/A
Clouds:N/A
Expected CloudBase > 400 ft AGL from Temp-Dew spread
CeilingNone
Temp-3°C (ISA -18)
Dew Point-4°C (93% RH)
AAT-8.0°C
QNH1007 hPa
Density Alt-1,775 ft
Elevation138 ft
Report Wrong Elevation
Raw Report
CYUS 270000Z AUTO 11007KT ////SM //// NCD M03/M04 A2973=

Extra information for CYUS:More info

Metar Taf Metar & Taf Last 4 Metars F.Rules Stats Wind Profile Meteogram Temp Stats Airport Information Weather charts Add Link Nearby VenuesMetar ALERT Operation Metar Decoded Social comments